sensor_id;sensor_type;location;lat;lon;timestamp;temperature;humidity
5011;DHT22;2524;54.364;10.072;2024-02-26T00:01:49;4.70;99.90
5011;DHT22;2524;54.364;10.072;2024-02-26T00:04:15;4.70;99.90
5011;DHT22;2524;54.364;10.072;2024-02-26T00:06:41;4.60;99.90
5011;DHT22;2524;54.364;10.072;2024-02-26T00:09:07;4.60;99.90
5011;DHT22;2524;54.364;10.072;2024-02-26T00:11:32;4.70;99.90
5011;DHT22;2524;54.364;10.072;2024-02-26T00:13:58;4.60;99.90
5011;DHT22;2524;54.364;10.072;2024-02-26T00:16:24;4.60;99.90
5011;DHT22;2524;54.364;10.072;2024-02-26T00:18:50;4.60;99.90
5011;DHT22;2524;54.364;10.072;2024-02-26T00:21:15;4.60;99.90
5011;DHT22;2524;54.364;10.072;2024-02-26T00:23:41;4.50;99.90
5011;DHT22;2524;54.364;10.072;2024-02-26T00:26:06;4.50;99.90
5011;DHT22;2524;54.364;10.072;2024-02-26T00:28:33;4.40;99.90
5011;DHT22;2524;54.364;10.072;2024-02-26T00:30:59;4.40;99.90
5011;DHT22;2524;54.364;10.072;2024-02-26T00:33:24;4.30;99.90
5011;DHT22;2524;54.364;10.072;2024-02-26T00:35:50;4.40;99.90
5011;DHT22;2524;54.364;10.072;2024-02-26T00:38:15;4.30;99.90
5011;DHT22;2524;54.364;10.072;2024-02-26T00:40:41;4.30;99.90
5011;DHT22;2524;54.364;10.072;2024-02-26T00:43:10;4.30;99.90
5011;DHT22;2524;54.364;10.072;2024-02-26T00:45:35;4.30;99.90
5011;DHT22;2524;54.364;10.072;2024-02-26T00:48:01;4.20;99.90
5011;DHT22;2524;54.364;10.072;2024-02-26T00:50:30;4.20;99.90
5011;DHT22;2524;54.364;10.072;2024-02-26T00:52:56;4.20;99.90
5011;DHT22;2524;54.364;10.072;2024-02-26T00:55:21;4.20;99.90
5011;DHT22;2524;54.364;10.072;2024-02-26T00:57:47;4.20;99.90
5011;DHT22;2524;54.364;10.072;2024-02-26T01:00:14;4.20;99.90
5011;DHT22;2524;54.364;10.072;2024-02-26T01:02:41;4.20;99.90
5011;DHT22;2524;54.364;10.072;2024-02-26T01:05:12;4.10;99.90
5011;DHT22;2524;54.364;10.072;2024-02-26T01:07:38;4.00;99.90
5011;DHT22;2524;54.364;10.072;2024-02-26T01:10:05;4.00;99.90
5011;DHT22;2524;54.364;10.072;2024-02-26T01:12:32;3.90;99.90
5011;DHT22;2524;54.364;10.072;2024-02-26T01:14:57;4.00;99.90
5011;DHT22;2524;54.364;10.072;2024-02-26T01:17:24;3.90;99.90
5011;DHT22;2524;54.364;10.072;2024-02-26T01:19:49;3.90;99.90
5011;DHT22;2524;54.364;10.072;2024-02-26T01:22:15;3.90;99.90
5011;DHT22;2524;54.364;10.072;2024-02-26T01:24:41;4.00;99.90
5011;DHT22;2524;54.364;10.072;2024-02-26T01:27:06;4.00;99.90
5011;DHT22;2524;54.364;10.072;2024-02-26T01:29:34;3.90;99.90
5011;DHT22;2524;54.364;10.072;2024-02-26T01:32:00;3.90;99.90
5011;DHT22;2524;54.364;10.072;2024-02-26T01:34:26;3.80;99.90
5011;DHT22;2524;54.364;10.072;2024-02-26T01:36:51;3.80;99.90
5011;DHT22;2524;54.364;10.072;2024-02-26T01:39:17;3.80;99.90
5011;DHT22;2524;54.364;10.072;2024-02-26T01:41:43;3.80;99.90
5011;DHT22;2524;54.364;10.072;2024-02-26T01:44:14;3.80;99.90
5011;DHT22;2524;54.364;10.072;2024-02-26T01:46:40;3.80;99.90
5011;DHT22;2524;54.364;10.072;2024-02-26T01:49:06;3.90;99.90
5011;DHT22;2524;54.364;10.072;2024-02-26T01:51:33;3.80;99.90
5011;DHT22;2524;54.364;10.072;2024-02-26T01:54:02;3.80;99.90
5011;DHT22;2524;54.364;10.072;2024-02-26T01:56:30;3.80;99.90
5011;DHT22;2524;54.364;10.072;2024-02-26T01:58:57;3.80;99.90
5011;DHT22;2524;54.364;10.072;2024-02-26T02:01:33;3.80;99.90
5011;DHT22;2524;54.364;10.072;2024-02-26T02:03:59;3.80;99.90
5011;DHT22;2524;54.364;10.072;2024-02-26T02:06:26;3.80;99.90
5011;DHT22;2524;54.364;10.072;2024-02-26T02:08:54;3.70;99.90
5011;DHT22;2524;54.364;10.072;2024-02-26T02:11:20;4.50;99.90
5011;DHT22;2524;54.364;10.072;2024-02-26T02:13:46;3.70;99.90
5011;DHT22;2524;54.364;10.072;2024-02-26T02:16:12;3.60;99.90
5011;DHT22;2524;54.364;10.072;2024-02-26T02:18:38;3.60;99.90
5011;DHT22;2524;54.364;10.072;2024-02-26T02:21:04;3.60;99.90
5011;DHT22;2524;54.364;10.072;2024-02-26T02:23:29;3.40;99.90
5011;DHT22;2524;54.364;10.072;2024-02-26T02:25:56;3.50;99.90
5011;DHT22;2524;54.364;10.072;2024-02-26T02:28:24;3.40;99.90
5011;DHT22;2524;54.364;10.072;2024-02-26T02:30:51;3.30;99.90
5011;DHT22;2524;54.364;10.072;2024-02-26T02:33:16;3.30;99.90
5011;DHT22;2524;54.364;10.072;2024-02-26T02:35:42;3.30;99.90
5011;DHT22;2524;54.364;10.072;2024-02-26T02:38:08;3.20;99.90
5011;DHT22;2524;54.364;10.072;2024-02-26T02:40:33;3.30;99.90
5011;DHT22;2524;54.364;10.072;2024-02-26T02:42:59;3.20;99.90
5011;DHT22;2524;54.364;10.072;2024-02-26T02:45:27;3.30;99.90
5011;DHT22;2524;54.364;10.072;2024-02-26T02:47:53;3.30;99.90
5011;DHT22;2524;54.364;10.072;2024-02-26T02:50:19;3.40;99.90
5011;DHT22;2524;54.364;10.072;2024-02-26T02:52:44;3.30;99.90
5011;DHT22;2524;54.364;10.072;2024-02-26T02:55:10;3.30;99.90
5011;DHT22;2524;54.364;10.072;2024-02-26T02:57:36;3.30;99.90
5011;DHT22;2524;54.364;10.072;2024-02-26T03:00:07;3.30;99.90
5011;DHT22;2524;54.364;10.072;2024-02-26T03:02:33;3.20;99.90
5011;DHT22;2524;54.364;10.072;2024-02-26T03:05:01;3.20;99.90
5011;DHT22;2524;54.364;10.072;2024-02-26T03:07:27;3.20;99.90
5011;DHT22;2524;54.364;10.072;2024-02-26T03:09:53;3.30;99.90
5011;DHT22;2524;54.364;10.072;2024-02-26T03:12:18;3.20;99.90
5011;DHT22;2524;54.364;10.072;2024-02-26T03:14:44;3.20;99.90
5011;DHT22;2524;54.364;10.072;2024-02-26T03:17:10;3.20;99.90
5011;DHT22;2524;54.364;10.072;2024-02-26T03:19:35;3.10;99.90
5011;DHT22;2524;54.364;10.072;2024-02-26T03:22:01;3.10;99.90
5011;DHT22;2524;54.364;10.072;2024-02-26T03:24:27;3.10;99.90
5011;DHT22;2524;54.364;10.072;2024-02-26T03:26:53;3.10;99.90
5011;DHT22;2524;54.364;10.072;2024-02-26T03:29:19;3.00;99.90
5011;DHT22;2524;54.364;10.072;2024-02-26T03:31:44;3.00;99.90
5011;DHT22;2524;54.364;10.072;2024-02-26T03:34:10;3.00;99.90
5011;DHT22;2524;54.364;10.072;2024-02-26T03:36:38;3.00;99.90
5011;DHT22;2524;54.364;10.072;2024-02-26T03:39:03;3.00;99.90
5011;DHT22;2524;54.364;10.072;2024-02-26T03:41:33;2.90;99.90
5011;DHT22;2524;54.364;10.072;2024-02-26T03:43:59;2.90;99.90
5011;DHT22;2524;54.364;10.072;2024-02-26T03:46:25;2.90;99.90
5011;DHT22;2524;54.364;10.072;2024-02-26T03:48:50;2.90;99.90
5011;DHT22;2524;54.364;10.072;2024-02-26T03:51:16;2.90;99.90
5011;DHT22;2524;54.364;10.072;2024-02-26T03:53:42;2.90;99.90
5011;DHT22;2524;54.364;10.072;2024-02-26T03:56:07;2.90;99.90
5011;DHT22;2524;54.364;10.072;2024-02-26T03:58:33;2.90;99.90
5011;DHT22;2524;54.364;10.072;2024-02-26T04:01:01;2.90;99.90
5011;DHT22;2524;54.364;10.072;2024-02-26T04:03:26;2.80;99.90
5011;DHT22;2524;54.364;10.072;2024-02-26T04:05:52;2.90;99.90
5011;DHT22;2524;54.364;10.072;2024-02-26T04:08:18;2.90;99.90
5011;DHT22;2524;54.364;10.072;2024-02-26T04:10:43;2.90;99.90
5011;DHT22;2524;54.364;10.072;2024-02-26T04:13:09;3.00;99.90
5011;DHT22;2524;54.364;10.072;2024-02-26T04:15:34;2.90;99.90
5011;DHT22;2524;54.364;10.072;2024-02-26T04:18:00;2.80;99.90
5011;DHT22;2524;54.364;10.072;2024-02-26T04:20:26;2.80;99.90
5011;DHT22;2524;54.364;10.072;2024-02-26T04:22:52;2.80;99.90
5011;DHT22;2524;54.364;10.072;2024-02-26T04:25:18;2.70;99.90
5011;DHT22;2524;54.364;10.072;2024-02-26T04:27:44;2.70;99.90
5011;DHT22;2524;54.364;10.072;2024-02-26T04:30:09;2.70;99.90
5011;DHT22;2524;54.364;10.072;2024-02-26T04:32:35;2.60;99.90
5011;DHT22;2524;54.364;10.072;2024-02-26T04:35:02;2.60;99.90
5011;DHT22;2524;54.364;10.072;2024-02-26T04:37:28;2.70;99.90
5011;DHT22;2524;54.364;10.072;2024-02-26T04:40:00;2.70;99.90
5011;DHT22;2524;54.364;10.072;2024-02-26T04:42:27;2.70;99.90
5011;DHT22;2524;54.364;10.072;2024-02-26T04:44:53;2.70;99.90
5011;DHT22;2524;54.364;10.072;2024-02-26T04:47:19;2.70;99.90
5011;DHT22;2524;54.364;10.072;2024-02-26T04:49:45;2.70;99.90
5011;DHT22;2524;54.364;10.072;2024-02-26T04:52:11;2.70;99.90
5011;DHT22;2524;54.364;10.072;2024-02-26T04:54:36;2.70;99.90
5011;DHT22;2524;54.364;10.072;2024-02-26T04:57:02;2.70;99.90
5011;DHT22;2524;54.364;10.072;2024-02-26T04:59:28;2.60;99.90
5011;DHT22;2524;54.364;10.072;2024-02-26T05:01:53;2.60;99.90
5011;DHT22;2524;54.364;10.072;2024-02-26T05:04:19;2.70;99.90
5011;DHT22;2524;54.364;10.072;2024-02-26T05:06:44;2.60;99.90
5011;DHT22;2524;54.364;10.072;2024-02-26T05:09:10;2.60;99.90
5011;DHT22;2524;54.364;10.072;2024-02-26T05:11:35;2.70;99.90
5011;DHT22;2524;54.364;10.072;2024-02-26T05:14:01;2.70;99.90
5011;DHT22;2524;54.364;10.072;2024-02-26T05:16:27;2.60;99.90
5011;DHT22;2524;54.364;10.072;2024-02-26T05:18:53;2.60;99.90
5011;DHT22;2524;54.364;10.072;2024-02-26T05:21:18;2.70;99.90
5011;DHT22;2524;54.364;10.072;2024-02-26T05:23:44;2.70;99.90
5011;DHT22;2524;54.364;10.072;2024-02-26T05:26:10;2.60;99.90
5011;DHT22;2524;54.364;10.072;2024-02-26T05:28:36;2.60;99.90
5011;DHT22;2524;54.364;10.072;2024-02-26T05:31:05;2.50;99.90
5011;DHT22;2524;54.364;10.072;2024-02-26T05:33:31;2.50;99.90
5011;DHT22;2524;54.364;10.072;2024-02-26T05:35:56;2.50;99.90
5011;DHT22;2524;54.364;10.072;2024-02-26T05:38:22;2.50;99.90
5011;DHT22;2524;54.364;10.072;2024-02-26T05:40:48;2.50;99.90
5011;DHT22;2524;54.364;10.072;2024-02-26T05:43:14;2.50;99.90
5011;DHT22;2524;54.364;10.072;2024-02-26T05:45:42;2.50;99.90
5011;DHT22;2524;54.364;10.072;2024-02-26T05:48:08;2.50;99.90
5011;DHT22;2524;54.364;10.072;2024-02-26T05:50:33;2.40;99.90
5011;DHT22;2524;54.364;10.072;2024-02-26T05:52:59;2.40;99.90
5011;DHT22;2524;54.364;10.072;2024-02-26T05:55:25;2.50;99.90
5011;DHT22;2524;54.364;10.072;2024-02-26T05:57:51;2.40;99.90
5011;DHT22;2524;54.364;10.072;2024-02-26T06:00:16;2.30;99.90
5011;DHT22;2524;54.364;10.072;2024-02-26T06:02:42;2.40;99.90
5011;DHT22;2524;54.364;10.072;2024-02-26T06:05:08;2.30;99.90
5011;DHT22;2524;54.364;10.072;2024-02-26T06:07:34;2.30;99.90
5011;DHT22;2524;54.364;10.072;2024-02-26T06:10:00;2.30;99.90
5011;DHT22;2524;54.364;10.072;2024-02-26T06:12:26;2.40;99.90
5011;DHT22;2524;54.364;10.072;2024-02-26T06:14:54;2.30;99.90
5011;DHT22;2524;54.364;10.072;2024-02-26T06:17:19;2.30;99.90
5011;DHT22;2524;54.364;10.072;2024-02-26T06:19:45;2.30;99.90
5011;DHT22;2524;54.364;10.072;2024-02-26T06:22:11;2.30;99.90
5011;DHT22;2524;54.364;10.072;2024-02-26T06:24:36;2.30;99.90
5011;DHT22;2524;54.364;10.072;2024-02-26T06:27:02;2.40;99.90
5011;DHT22;2524;54.364;10.072;2024-02-26T06:29:28;2.30;99.90
5011;DHT22;2524;54.364;10.072;2024-02-26T06:31:54;2.30;99.90
5011;DHT22;2524;54.364;10.072;2024-02-26T06:34:19;2.20;99.90
5011;DHT22;2524;54.364;10.072;2024-02-26T06:36:45;2.20;99.90
5011;DHT22;2524;54.364;10.072;2024-02-26T06:39:11;2.20;99.90
5011;DHT22;2524;54.364;10.072;2024-02-26T06:41:38;2.20;99.90
5011;DHT22;2524;54.364;10.072;2024-02-26T06:44:04;2.20;99.90
5011;DHT22;2524;54.364;10.072;2024-02-26T06:46:30;2.20;99.90
5011;DHT22;2524;54.364;10.072;2024-02-26T06:48:57;2.20;99.90
5011;DHT22;2524;54.364;10.072;2024-02-26T06:51:23;2.10;99.90
5011;DHT22;2524;54.364;10.072;2024-02-26T06:53:49;2.20;99.90
5011;DHT22;2524;54.364;10.072;2024-02-26T06:56:14;2.20;99.90
5011;DHT22;2524;54.364;10.072;2024-02-26T06:58:40;2.20;99.90
5011;DHT22;2524;54.364;10.072;2024-02-26T07:01:06;2.10;99.90
5011;DHT22;2524;54.364;10.072;2024-02-26T07:03:34;2.20;99.90
5011;DHT22;2524;54.364;10.072;2024-02-26T07:05:59;2.20;99.90
5011;DHT22;2524;54.364;10.072;2024-02-26T07:08:25;2.20;99.90
5011;DHT22;2524;54.364;10.072;2024-02-26T07:10:51;2.20;99.90
5011;DHT22;2524;54.364;10.072;2024-02-26T07:13:16;2.30;99.90
5011;DHT22;2524;54.364;10.072;2024-02-26T07:15:42;2.30;99.90
5011;DHT22;2524;54.364;10.072;2024-02-26T07:18:07;2.20;99.90
5011;DHT22;2524;54.364;10.072;2024-02-26T07:20:33;2.20;99.90
5011;DHT22;2524;54.364;10.072;2024-02-26T07:22:58;2.20;99.90
5011;DHT22;2524;54.364;10.072;2024-02-26T07:25:24;2.20;99.90
5011;DHT22;2524;54.364;10.072;2024-02-26T07:27:50;2.10;99.90
5011;DHT22;2524;54.364;10.072;2024-02-26T07:30:16;2.10;99.90
5011;DHT22;2524;54.364;10.072;2024-02-26T07:32:43;2.10;99.90
5011;DHT22;2524;54.364;10.072;2024-02-26T07:35:08;2.10;99.90
5011;DHT22;2524;54.364;10.072;2024-02-26T07:37:34;2.10;99.90
5011;DHT22;2524;54.364;10.072;2024-02-26T07:40:00;2.10;99.90
5011;DHT22;2524;54.364;10.072;2024-02-26T07:42:26;2.10;99.90
5011;DHT22;2524;54.364;10.072;2024-02-26T07:44:51;2.10;99.90
5011;DHT22;2524;54.364;10.072;2024-02-26T07:47:18;2.10;99.90
5011;DHT22;2524;54.364;10.072;2024-02-26T07:49:44;2.10;99.90
5011;DHT22;2524;54.364;10.072;2024-02-26T07:52:10;2.10;99.90
5011;DHT22;2524;54.364;10.072;2024-02-26T07:54:35;2.00;99.90
5011;DHT22;2524;54.364;10.072;2024-02-26T07:57:01;2.10;99.90
5011;DHT22;2524;54.364;10.072;2024-02-26T07:59:30;2.10;99.90
5011;DHT22;2524;54.364;10.072;2024-02-26T08:01:56;2.10;99.90
5011;DHT22;2524;54.364;10.072;2024-02-26T08:04:22;2.10;99.90
5011;DHT22;2524;54.364;10.072;2024-02-26T08:06:47;2.10;99.90
5011;DHT22;2524;54.364;10.072;2024-02-26T08:09:13;2.10;99.90
5011;DHT22;2524;54.364;10.072;2024-02-26T08:11:38;2.20;99.90
5011;DHT22;2524;54.364;10.072;2024-02-26T08:14:05;2.20;99.90
5011;DHT22;2524;54.364;10.072;2024-02-26T08:16:31;2.30;99.90
5011;DHT22;2524;54.364;10.072;2024-02-26T08:18:57;2.20;99.90
5011;DHT22;2524;54.364;10.072;2024-02-26T08:21:23;2.20;99.90
5011;DHT22;2524;54.364;10.072;2024-02-26T08:23:48;2.30;99.90
5011;DHT22;2524;54.364;10.072;2024-02-26T08:26:14;2.30;99.90
5011;DHT22;2524;54.364;10.072;2024-02-26T08:28:39;2.30;99.90
5011;DHT22;2524;54.364;10.072;2024-02-26T08:31:05;2.30;99.90
5011;DHT22;2524;54.364;10.072;2024-02-26T08:33:31;2.40;99.90
5011;DHT22;2524;54.364;10.072;2024-02-26T08:35:57;2.50;99.90
5011;DHT22;2524;54.364;10.072;2024-02-26T08:38:23;2.50;99.90
5011;DHT22;2524;54.364;10.072;2024-02-26T08:40:49;2.50;99.90
5011;DHT22;2524;54.364;10.072;2024-02-26T08:43:14;2.70;99.90
5011;DHT22;2524;54.364;10.072;2024-02-26T08:45:40;2.60;99.90
5011;DHT22;2524;54.364;10.072;2024-02-26T08:48:06;2.60;99.90
5011;DHT22;2524;54.364;10.072;2024-02-26T08:50:33;2.60;99.90
5011;DHT22;2524;54.364;10.072;2024-02-26T08:52:59;2.60;99.90
5011;DHT22;2524;54.364;10.072;2024-02-26T08:55:27;2.70;99.90
5011;DHT22;2524;54.364;10.072;2024-02-26T08:57:53;2.70;99.90
5011;DHT22;2524;54.364;10.072;2024-02-26T09:00:19;2.70;99.90
5011;DHT22;2524;54.364;10.072;2024-02-26T09:02:48;2.80;99.90
5011;DHT22;2524;54.364;10.072;2024-02-26T09:05:14;2.80;99.90
5011;DHT22;2524;54.364;10.072;2024-02-26T09:07:40;2.90;99.90
5011;DHT22;2524;54.364;10.072;2024-02-26T09:10:07;3.00;99.90
5011;DHT22;2524;54.364;10.072;2024-02-26T09:12:36;3.00;99.90
5011;DHT22;2524;54.364;10.072;2024-02-26T09:15:02;3.10;99.90
5011;DHT22;2524;54.364;10.072;2024-02-26T09:17:27;3.00;99.90
5011;DHT22;2524;54.364;10.072;2024-02-26T09:19:53;3.10;99.90
5011;DHT22;2524;54.364;10.072;2024-02-26T09:22:18;3.10;99.90
5011;DHT22;2524;54.364;10.072;2024-02-26T09:24:44;3.20;99.90
5011;DHT22;2524;54.364;10.072;2024-02-26T09:27:10;3.20;99.90
5011;DHT22;2524;54.364;10.072;2024-02-26T09:29:35;3.20;99.90
5011;DHT22;2524;54.364;10.072;2024-02-26T09:32:01;3.30;99.90
5011;DHT22;2524;54.364;10.072;2024-02-26T09:34:27;3.30;99.90
5011;DHT22;2524;54.364;10.072;2024-02-26T09:36:52;3.30;99.90
5011;DHT22;2524;54.364;10.072;2024-02-26T09:39:18;3.30;99.90
5011;DHT22;2524;54.364;10.072;2024-02-26T09:41:47;3.40;99.90
5011;DHT22;2524;54.364;10.072;2024-02-26T09:44:18;3.30;99.90
5011;DHT22;2524;54.364;10.072;2024-02-26T09:46:52;3.40;99.90
5011;DHT22;2524;54.364;10.072;2024-02-26T09:49:20;3.40;99.90
5011;DHT22;2524;54.364;10.072;2024-02-26T09:51:49;3.30;99.90
5011;DHT22;2524;54.364;10.072;2024-02-26T09:54:15;3.40;99.90
5011;DHT22;2524;54.364;10.072;2024-02-26T09:56:41;3.40;99.90
5011;DHT22;2524;54.364;10.072;2024-02-26T09:59:15;3.40;99.90
5011;DHT22;2524;54.364;10.072;2024-02-26T10:01:42;3.50;99.90
5011;DHT22;2524;54.364;10.072;2024-02-26T10:04:10;3.40;99.90
5011;DHT22;2524;54.364;10.072;2024-02-26T10:06:36;3.40;99.90
5011;DHT22;2524;54.364;10.072;2024-02-26T10:09:04;3.40;99.90
5011;DHT22;2524;54.364;10.072;2024-02-26T10:11:33;3.50;99.90
5011;DHT22;2524;54.364;10.072;2024-02-26T10:13:58;3.50;99.90
5011;DHT22;2524;54.364;10.072;2024-02-26T10:16:28;3.60;99.90
5011;DHT22;2524;54.364;10.072;2024-02-26T10:18:53;3.70;99.90
5011;DHT22;2524;54.364;10.072;2024-02-26T10:21:22;3.60;99.90
5011;DHT22;2524;54.364;10.072;2024-02-26T10:23:49;3.70;99.90
5011;DHT22;2524;54.364;10.072;2024-02-26T10:26:16;3.70;99.90
5011;DHT22;2524;54.364;10.072;2024-02-26T10:28:42;3.70;99.90
5011;DHT22;2524;54.364;10.072;2024-02-26T10:31:09;3.70;99.90
5011;DHT22;2524;54.364;10.072;2024-02-26T10:33:36;3.80;99.90
5011;DHT22;2524;54.364;10.072;2024-02-26T10:36:03;3.80;99.90
5011;DHT22;2524;54.364;10.072;2024-02-26T10:38:29;3.80;99.90
5011;DHT22;2524;54.364;10.072;2024-02-26T10:40:55;3.80;99.90
5011;DHT22;2524;54.364;10.072;2024-02-26T10:43:21;3.90;99.90
5011;DHT22;2524;54.364;10.072;2024-02-26T10:45:47;3.90;99.90
5011;DHT22;2524;54.364;10.072;2024-02-26T10:48:14;4.00;99.90
5011;DHT22;2524;54.364;10.072;2024-02-26T10:50:57;4.00;99.90
5011;DHT22;2524;54.364;10.072;2024-02-26T10:53:23;4.00;99.90
5011;DHT22;2524;54.364;10.072;2024-02-26T10:56:10;4.00;99.90
5011;DHT22;2524;54.364;10.072;2024-02-26T10:58:37;4.10;99.90
5011;DHT22;2524;54.364;10.072;2024-02-26T11:01:04;4.10;99.90
5011;DHT22;2524;54.364;10.072;2024-02-26T11:03:31;4.10;99.90
5011;DHT22;2524;54.364;10.072;2024-02-26T11:06:01;4.10;99.90
5011;DHT22;2524;54.364;10.072;2024-02-26T11:08:28;4.10;99.90
5011;DHT22;2524;54.364;10.072;2024-02-26T11:10:55;4.10;99.90
5011;DHT22;2524;54.364;10.072;2024-02-26T11:13:21;4.20;99.90
5011;DHT22;2524;54.364;10.072;2024-02-26T11:15:49;4.20;99.90
5011;DHT22;2524;54.364;10.072;2024-02-26T11:18:16;4.20;99.90
5011;DHT22;2524;54.364;10.072;2024-02-26T11:20:44;4.20;99.90
5011;DHT22;2524;54.364;10.072;2024-02-26T11:23:11;4.30;99.90
5011;DHT22;2524;54.364;10.072;2024-02-26T11:25:37;4.30;99.90
5011;DHT22;2524;54.364;10.072;2024-02-26T11:28:07;4.30;99.90
5011;DHT22;2524;54.364;10.072;2024-02-26T11:30:36;4.40;99.90
5011;DHT22;2524;54.364;10.072;2024-02-26T11:33:08;4.40;99.90
5011;DHT22;2524;54.364;10.072;2024-02-26T11:35:38;4.40;99.90
5011;DHT22;2524;54.364;10.072;2024-02-26T11:38:04;4.50;99.90
5011;DHT22;2524;54.364;10.072;2024-02-26T11:40:33;4.50;99.90
5011;DHT22;2524;54.364;10.072;2024-02-26T11:43:00;4.50;99.90
5011;DHT22;2524;54.364;10.072;2024-02-26T11:48:14;4.70;99.90
5011;DHT22;2524;54.364;10.072;2024-02-26T11:50:51;4.70;99.90
5011;DHT22;2524;54.364;10.072;2024-02-26T11:53:28;4.80;99.90
5011;DHT22;2524;54.364;10.072;2024-02-26T11:58:45;5.00;99.90
5011;DHT22;2524;54.364;10.072;2024-02-26T12:01:37;5.20;99.90
5011;DHT22;2524;54.364;10.072;2024-02-26T12:04:05;5.30;99.90
5011;DHT22;2524;54.364;10.072;2024-02-26T12:06:31;5.30;99.90
5011;DHT22;2524;54.364;10.072;2024-02-26T12:09:05;5.40;99.90
5011;DHT22;2524;54.364;10.072;2024-02-26T12:11:31;5.50;99.90
5011;DHT22;2524;54.364;10.072;2024-02-26T12:13:56;5.60;99.90
5011;DHT22;2524;54.364;10.072;2024-02-26T12:16:40;5.70;99.90
5011;DHT22;2524;54.364;10.072;2024-02-26T12:19:10;5.70;99.90
5011;DHT22;2524;54.364;10.072;2024-02-26T12:21:37;5.70;99.90
5011;DHT22;2524;54.364;10.072;2024-02-26T12:24:13;5.70;99.90
5011;DHT22;2524;54.364;10.072;2024-02-26T12:26:40;5.80;99.90
5011;DHT22;2524;54.364;10.072;2024-02-26T12:29:06;5.90;99.90
5011;DHT22;2524;54.364;10.072;2024-02-26T12:31:33;5.90;99.90
5011;DHT22;2524;54.364;10.072;2024-02-26T12:34:00;5.90;99.90
5011;DHT22;2524;54.364;10.072;2024-02-26T12:36:26;5.80;99.90
5011;DHT22;2524;54.364;10.072;2024-02-26T12:38:52;5.90;99.90
5011;DHT22;2524;54.364;10.072;2024-02-26T12:41:18;5.90;99.90
5011;DHT22;2524;54.364;10.072;2024-02-26T12:43:43;5.90;99.90
5011;DHT22;2524;54.364;10.072;2024-02-26T12:46:10;6.10;99.90
5011;DHT22;2524;54.364;10.072;2024-02-26T12:48:36;6.00;99.90
5011;DHT22;2524;54.364;10.072;2024-02-26T12:51:03;6.00;99.90
5011;DHT22;2524;54.364;10.072;2024-02-26T12:53:29;6.00;99.90
5011;DHT22;2524;54.364;10.072;2024-02-26T12:55:55;6.00;99.90
5011;DHT22;2524;54.364;10.072;2024-02-26T12:58:22;6.00;99.90
5011;DHT22;2524;54.364;10.072;2024-02-26T13:00:55;6.00;99.90
5011;DHT22;2524;54.364;10.072;2024-02-26T13:03:21;6.00;99.90
5011;DHT22;2524;54.364;10.072;2024-02-26T13:05:48;6.00;99.90
5011;DHT22;2524;54.364;10.072;2024-02-26T13:08:20;5.90;99.90
5011;DHT22;2524;54.364;10.072;2024-02-26T13:10:48;6.00;99.90
5011;DHT22;2524;54.364;10.072;2024-02-26T13:13:17;5.90;99.90
5011;DHT22;2524;54.364;10.072;2024-02-26T13:15:44;5.90;99.90
5011;DHT22;2524;54.364;10.072;2024-02-26T13:18:15;5.90;99.90
5011;DHT22;2524;54.364;10.072;2024-02-26T13:20:41;5.90;99.90
5011;DHT22;2524;54.364;10.072;2024-02-26T13:23:12;5.90;99.90
5011;DHT22;2524;54.364;10.072;2024-02-26T13:25:38;5.80;99.90
5011;DHT22;2524;54.364;10.072;2024-02-26T13:28:25;5.80;99.90
5011;DHT22;2524;54.364;10.072;2024-02-26T13:30:57;5.90;99.90
5011;DHT22;2524;54.364;10.072;2024-02-26T13:33:24;5.80;99.90
5011;DHT22;2524;54.364;10.072;2024-02-26T13:35:52;5.80;99.90
5011;DHT22;2524;54.364;10.072;2024-02-26T13:38:19;5.90;99.90
5011;DHT22;2524;54.364;10.072;2024-02-26T13:40:44;5.90;99.90
5011;DHT22;2524;54.364;10.072;2024-02-26T13:43:10;5.90;99.90
5011;DHT22;2524;54.364;10.072;2024-02-26T13:45:37;5.90;99.90
5011;DHT22;2524;54.364;10.072;2024-02-26T13:48:05;5.90;99.90
5011;DHT22;2524;54.364;10.072;2024-02-26T13:50:33;5.90;99.90
5011;DHT22;2524;54.364;10.072;2024-02-26T13:52:59;5.90;99.90
5011;DHT22;2524;54.364;10.072;2024-02-26T13:55:28;6.00;99.90
5011;DHT22;2524;54.364;10.072;2024-02-26T13:57:56;5.90;99.90
5011;DHT22;2524;54.364;10.072;2024-02-26T14:00:22;6.00;99.90
5011;DHT22;2524;54.364;10.072;2024-02-26T14:02:48;6.00;99.90
5011;DHT22;2524;54.364;10.072;2024-02-26T14:05:14;6.00;99.90
5011;DHT22;2524;54.364;10.072;2024-02-26T14:07:40;6.00;99.90
5011;DHT22;2524;54.364;10.072;2024-02-26T14:10:07;6.00;99.90
5011;DHT22;2524;54.364;10.072;2024-02-26T14:12:32;6.00;99.90
5011;DHT22;2524;54.364;10.072;2024-02-26T14:14:58;6.10;99.90
5011;DHT22;2524;54.364;10.072;2024-02-26T14:17:26;6.10;99.90
5011;DHT22;2524;54.364;10.072;2024-02-26T14:19:52;6.10;99.90
5011;DHT22;2524;54.364;10.072;2024-02-26T14:22:18;6.10;99.90
5011;DHT22;2524;54.364;10.072;2024-02-26T14:24:43;6.10;99.90
5011;DHT22;2524;54.364;10.072;2024-02-26T14:27:10;6.10;99.90
5011;DHT22;2524;54.364;10.072;2024-02-26T14:29:40;6.20;99.90
5011;DHT22;2524;54.364;10.072;2024-02-26T14:32:07;6.10;99.90
5011;DHT22;2524;54.364;10.072;2024-02-26T14:34:33;6.20;99.90
5011;DHT22;2524;54.364;10.072;2024-02-26T14:36:58;6.10;99.90
5011;DHT22;2524;54.364;10.072;2024-02-26T14:39:24;6.10;99.90
5011;DHT22;2524;54.364;10.072;2024-02-26T14:41:49;6.20;99.90
5011;DHT22;2524;54.364;10.072;2024-02-26T14:44:15;6.10;99.90
5011;DHT22;2524;54.364;10.072;2024-02-26T14:46:41;6.10;99.90
5011;DHT22;2524;54.364;10.072;2024-02-26T14:49:06;6.10;99.90
5011;DHT22;2524;54.364;10.072;2024-02-26T14:51:32;6.10;99.90
5011;DHT22;2524;54.364;10.072;2024-02-26T14:53:58;6.10;99.90
5011;DHT22;2524;54.364;10.072;2024-02-26T14:56:25;6.10;99.90
5011;DHT22;2524;54.364;10.072;2024-02-26T14:58:51;6.20;99.90
5011;DHT22;2524;54.364;10.072;2024-02-26T15:01:16;6.20;99.90
5011;DHT22;2524;54.364;10.072;2024-02-26T15:03:42;6.10;99.90
5011;DHT22;2524;54.364;10.072;2024-02-26T15:06:09;6.10;99.90
5011;DHT22;2524;54.364;10.072;2024-02-26T15:08:35;6.10;99.90
5011;DHT22;2524;54.364;10.072;2024-02-26T15:11:01;6.20;99.90
5011;DHT22;2524;54.364;10.072;2024-02-26T15:13:27;6.10;99.90
5011;DHT22;2524;54.364;10.072;2024-02-26T15:15:52;6.10;99.90
5011;DHT22;2524;54.364;10.072;2024-02-26T15:18:19;6.10;99.90
5011;DHT22;2524;54.364;10.072;2024-02-26T15:20:45;6.10;99.90
5011;DHT22;2524;54.364;10.072;2024-02-26T15:23:11;6.10;99.90
5011;DHT22;2524;54.364;10.072;2024-02-26T15:25:38;6.20;99.90
5011;DHT22;2524;54.364;10.072;2024-02-26T15:28:04;6.10;99.90
5011;DHT22;2524;54.364;10.072;2024-02-26T15:30:31;6.10;99.90
5011;DHT22;2524;54.364;10.072;2024-02-26T15:32:59;6.10;99.90
5011;DHT22;2524;54.364;10.072;2024-02-26T15:35:25;6.10;99.90
5011;DHT22;2524;54.364;10.072;2024-02-26T15:37:51;6.10;99.90
5011;DHT22;2524;54.364;10.072;2024-02-26T15:40:17;6.00;99.90
5011;DHT22;2524;54.364;10.072;2024-02-26T15:42:43;6.00;99.90
5011;DHT22;2524;54.364;10.072;2024-02-26T15:45:09;6.00;99.90
5011;DHT22;2524;54.364;10.072;2024-02-26T15:47:36;6.00;99.90
5011;DHT22;2524;54.364;10.072;2024-02-26T15:50:03;6.10;99.90
5011;DHT22;2524;54.364;10.072;2024-02-26T15:52:29;6.00;99.90
5011;DHT22;2524;54.364;10.072;2024-02-26T15:54:55;6.00;99.90
5011;DHT22;2524;54.364;10.072;2024-02-26T15:57:21;6.10;99.90
5011;DHT22;2524;54.364;10.072;2024-02-26T15:59:47;6.00;99.90
5011;DHT22;2524;54.364;10.072;2024-02-26T16:02:18;6.10;99.90
5011;DHT22;2524;54.364;10.072;2024-02-26T16:04:44;6.10;99.90